Terminal Aerodrome Forecast
Issued by NWS

Home | Current Version | Previous Version | Text Only | Print | Product List | Glossary Off
Versions: 1 2 3 4 5 6 7 8 9 10 11 12 13 14 15

217
FTUS43 KMPX 270522
TAFRWF
TAF
KRWF 270522Z 2706/2806 VRB03KT P6SM OVC027
     FM270900 VRB03KT 5SM BR SCT030 BKN100
     FM271400 03003KT P6SM BKN100
     FM271700 04005KT P6SM BKN250
     FM280000 08004KT P6SM SKC=

USA.gov is the U.S. government's official web portal to all federal, state and local government web resources and services.